createdAt,value
2019-02-07T00:00:43.961Z,7.30
2019-02-07T00:03:12.816Z,7.20
2019-02-07T00:05:41.505Z,7.20
2019-02-07T00:08:10.311Z,7.20
2019-02-07T00:10:39.438Z,7.20
2019-02-07T00:13:08.205Z,7.20
2019-02-07T00:15:37.101Z,7.20
2019-02-07T00:18:06.349Z,7.20
2019-02-07T00:20:35.154Z,7.10
2019-02-07T00:23:06.617Z,7.10
2019-02-07T00:25:35.724Z,7.10
2019-02-07T00:28:04.664Z,7.20
2019-02-07T00:30:33.675Z,7.20
2019-02-07T00:33:02.640Z,7.20
2019-02-07T00:35:31.407Z,7.20
2019-02-07T00:38:00.197Z,7.20
2019-02-07T00:40:29.395Z,7.20
2019-02-07T00:42:58.404Z,7.10
2019-02-07T00:45:27.158Z,7.10
2019-02-07T00:47:55.908Z,7.10
2019-02-07T00:50:24.746Z,7.10
2019-02-07T00:52:53.472Z,7.10
2019-02-07T00:55:22.717Z,7.00
2019-02-07T00:57:51.480Z,7.00
2019-02-07T01:00:22.704Z,7.00
2019-02-07T01:02:51.568Z,7.00
2019-02-07T01:05:22.083Z,7.00
2019-02-07T01:07:51.438Z,7.00
2019-02-07T01:10:23.502Z,7.00
2019-02-07T01:12:52.360Z,7.00
2019-02-07T01:15:22.368Z,6.90
2019-02-07T01:17:51.145Z,6.80
2019-02-07T01:20:20.077Z,6.70
2019-02-07T01:22:49.733Z,6.60
2019-02-07T01:25:20.930Z,6.60
2019-02-07T01:27:50.223Z,6.60
2019-02-07T01:30:21.274Z,6.50
2019-02-07T01:32:50.231Z,6.50
2019-02-07T01:35:18.886Z,6.40
2019-02-07T01:37:47.778Z,6.40
2019-02-07T01:40:18.396Z,6.40
2019-02-07T01:42:47.588Z,6.40
2019-02-07T01:45:19.606Z,6.30
2019-02-07T01:47:48.776Z,6.30
2019-02-07T01:50:20.578Z,6.30
2019-02-07T01:52:49.907Z,6.30
2019-02-07T01:55:18.884Z,6.30
2019-02-07T01:57:47.712Z,6.30
2019-02-07T02:00:18.422Z,6.20
2019-02-07T02:02:47.537Z,6.20
2019-02-07T02:05:18.343Z,6.20
2019-02-07T02:07:47.980Z,6.10
2019-02-07T02:10:19.233Z,6.10
2019-02-07T02:12:48.477Z,6.10
2019-02-07T02:15:24.417Z,6.00
2019-02-07T02:17:50.464Z,6.00
2019-02-07T02:20:21.695Z,5.90
2019-02-07T02:22:50.801Z,5.90
2019-02-07T02:25:20.163Z,5.80
2019-02-07T02:27:49.187Z,5.70
2019-02-07T02:30:20.848Z,5.70
2019-02-07T02:32:49.722Z,5.60
2019-02-07T02:35:18.989Z,5.50
2019-02-07T02:37:49.097Z,5.50
2019-02-07T02:40:18.446Z,5.50
2019-02-07T02:42:47.429Z,5.50
2019-02-07T02:45:18.892Z,5.40
2019-02-07T02:47:47.771Z,5.30
2019-02-07T02:50:19.356Z,5.30
2019-02-07T02:52:48.329Z,5.30
2019-02-07T02:55:18.713Z,5.20
2019-02-07T02:57:47.546Z,5.20
2019-02-07T03:00:18.770Z,5.10
2019-02-07T03:02:49.208Z,5.10
2019-02-07T03:05:19.572Z,5.00
2019-02-07T03:07:48.343Z,5.00
2019-02-07T03:10:18.812Z,5.00
2019-02-07T03:12:49.208Z,5.00
2019-02-07T03:15:20.947Z,5.00
2019-02-07T03:17:51.876Z,5.00
2019-02-07T03:20:22.190Z,5.00
2019-02-07T03:22:52.566Z,5.00
2019-02-07T03:25:22.961Z,5.00
2019-02-07T03:27:53.375Z,5.10
2019-02-07T03:30:24.120Z,5.10
2019-02-07T03:32:54.518Z,5.10
2019-02-07T03:35:24.854Z,5.20
2019-02-07T03:37:55.270Z,5.20
2019-02-07T03:40:26.401Z,5.20
2019-02-07T03:42:56.764Z,5.20
2019-02-07T03:45:27.407Z,5.30
2019-02-07T03:47:57.231Z,5.20
2019-02-07T03:50:27.619Z,5.30
2019-02-07T03:52:58.009Z,5.30
2019-02-07T03:55:28.478Z,5.30
2019-02-07T03:57:58.857Z,5.30
2019-02-07T04:00:29.342Z,5.40
2019-02-07T04:02:59.722Z,5.40
2019-02-07T04:05:30.133Z,5.40
2019-02-07T04:07:59.818Z,5.40
2019-02-07T04:10:30.189Z,5.50
2019-02-07T04:12:59.174Z,5.60
2019-02-07T04:15:29.512Z,5.60
2019-02-07T04:17:59.832Z,5.70
2019-02-07T04:20:30.168Z,5.70
2019-02-07T04:23:00.499Z,5.70
2019-02-07T04:25:30.888Z,5.80
2019-02-07T04:28:01.226Z,5.80
2019-02-07T04:30:31.627Z,5.90
2019-02-07T04:33:01.886Z,5.90
2019-02-07T04:35:32.168Z,6.00
2019-02-07T04:38:02.447Z,6.00
2019-02-07T04:40:32.831Z,6.00
2019-02-07T04:43:03.184Z,6.00
2019-02-07T04:45:33.543Z,6.00
2019-02-07T04:48:03.905Z,6.00
2019-02-07T04:50:33.821Z,6.00
2019-02-07T04:53:04.724Z,6.00
2019-02-07T04:55:34.342Z,6.00
2019-02-07T04:58:04.734Z,6.00
2019-02-07T05:00:35.055Z,6.00
2019-02-07T05:03:04.853Z,6.10
2019-02-07T05:05:35.240Z,6.10
2019-02-07T05:08:05.635Z,6.10
2019-02-07T05:10:35.931Z,6.20
2019-02-07T05:13:06.466Z,6.20
2019-02-07T05:15:36.785Z,6.20
2019-02-07T05:18:07.206Z,6.30
2019-02-07T05:20:37.996Z,6.40
2019-02-07T05:23:08.347Z,6.60
2019-02-07T05:25:38.249Z,6.60
2019-02-07T05:28:08.804Z,6.70
2019-02-07T05:30:39.295Z,6.70
2019-02-07T05:33:09.685Z,6.80
2019-02-07T05:35:40.359Z,6.80
2019-02-07T05:38:10.670Z,6.90
2019-02-07T05:40:40.497Z,6.90
2019-02-07T05:43:10.812Z,6.90
2019-02-07T05:45:41.194Z,7.00
2019-02-07T05:48:11.627Z,7.00
2019-02-07T05:50:42.019Z,7.10
2019-02-07T05:53:11.777Z,7.10
2019-02-07T05:55:42.165Z,7.10
2019-02-07T05:58:12.550Z,7.20
2019-02-07T06:00:43.004Z,7.20
2019-02-07T06:03:13.717Z,7.10
2019-02-07T06:05:44.045Z,7.10
2019-02-07T06:08:14.490Z,7.10
2019-02-07T06:10:44.830Z,7.10
2019-02-07T06:13:15.212Z,7.10
2019-02-07T06:15:45.639Z,7.10
2019-02-07T06:18:15.828Z,7.10
2019-02-07T06:20:46.100Z,7.10
2019-02-07T06:23:16.425Z,7.10
2019-02-07T06:25:46.873Z,7.10
2019-02-07T06:28:17.146Z,7.10
2019-02-07T06:30:46.163Z,7.10
2019-02-07T06:33:16.567Z,7.10
2019-02-07T06:35:46.909Z,7.10
2019-02-07T06:38:18.688Z,7.10
2019-02-07T06:40:48.964Z,7.10
2019-02-07T06:43:19.304Z,7.10
2019-02-07T06:45:49.650Z,7.10
2019-02-07T06:48:19.936Z,7.00
2019-02-07T06:50:50.288Z,7.10
2019-02-07T06:53:20.626Z,7.10
2019-02-07T06:55:51.037Z,7.10
2019-02-07T06:58:22.359Z,7.10
2019-02-07T07:00:52.842Z,7.10
2019-02-07T07:03:23.268Z,7.10
2019-02-07T07:05:53.600Z,7.10
2019-02-07T07:08:23.998Z,7.10
2019-02-07T07:10:54.682Z,7.10
2019-02-07T07:13:24.991Z,7.20
2019-02-07T07:15:53.706Z,7.20
2019-02-07T07:18:24.148Z,7.20
2019-02-07T07:20:54.519Z,7.20
2019-02-07T07:23:25.226Z,7.20
2019-02-07T07:25:53.976Z,7.20
2019-02-07T07:28:24.338Z,7.20
2019-02-07T07:30:54.516Z,7.20
2019-02-07T07:33:25.025Z,7.30
2019-02-07T07:35:55.389Z,7.30
2019-02-07T07:38:25.953Z,7.30
2019-02-07T07:40:54.658Z,7.40
2019-02-07T07:43:25.041Z,7.40
2019-02-07T07:45:55.441Z,7.40
2019-02-07T07:48:25.808Z,7.40
2019-02-07T07:50:56.045Z,7.50
2019-02-07T07:53:25.832Z,7.50
2019-02-07T07:55:56.193Z,7.50
2019-02-07T07:58:26.619Z,7.60
2019-02-07T08:00:57.015Z,7.60
2019-02-07T08:03:27.441Z,7.60
2019-02-07T08:05:58.089Z,7.70
2019-02-07T08:08:28.514Z,7.70
2019-02-07T08:10:58.886Z,7.70
2019-02-07T08:13:29.300Z,7.70
2019-02-07T08:16:00.762Z,7.80
2019-02-07T08:18:31.664Z,7.80
2019-02-07T08:21:02.017Z,7.80
2019-02-07T08:23:32.386Z,7.80
2019-02-07T08:26:02.794Z,7.80
2019-02-07T08:28:33.135Z,7.80
2019-02-07T08:31:03.867Z,7.80
2019-02-07T08:33:34.354Z,7.80
2019-02-07T08:36:07.432Z,7.80
2019-02-07T08:38:37.814Z,7.90
2019-02-07T08:41:08.247Z,7.90
2019-02-07T08:43:38.628Z,7.90
2019-02-07T08:46:09.019Z,7.80
2019-02-07T08:48:39.414Z,7.80
2019-02-07T08:51:09.832Z,7.80
2019-02-07T08:53:40.196Z,7.90
2019-02-07T08:56:09.015Z,7.90
2019-02-07T08:58:39.698Z,7.90
2019-02-07T09:01:11.547Z,7.90
2019-02-07T09:03:42.077Z,7.90
2019-02-07T09:06:12.456Z,7.90
2019-02-07T09:08:41.288Z,8.00
2019-02-07T09:11:11.625Z,8.10
2019-02-07T09:13:43.056Z,8.00
2019-02-07T09:16:13.408Z,7.90
2019-02-07T09:18:43.819Z,7.90
2019-02-07T09:21:14.251Z,7.90
2019-02-07T09:23:44.614Z,7.90
2019-02-07T09:26:15.412Z,7.90
2019-02-07T09:28:45.941Z,7.90
2019-02-07T09:31:16.334Z,8.00
2019-02-07T09:33:46.734Z,7.90
2019-02-07T09:36:17.098Z,8.00
2019-02-07T09:38:47.835Z,8.00
2019-02-07T09:41:18.215Z,8.10
2019-02-07T09:43:48.526Z,8.10
2019-02-07T09:46:18.894Z,8.10
2019-02-07T09:48:49.305Z,8.50
2019-02-07T09:51:19.733Z,8.50
2019-02-07T09:53:50.054Z,8.40
2019-02-07T09:56:20.448Z,8.30
2019-02-07T09:58:50.779Z,8.10
2019-02-07T10:01:21.128Z,8.00
2019-02-07T10:03:51.513Z,8.10
2019-02-07T10:06:21.914Z,8.30
2019-02-07T10:08:52.607Z,8.40
2019-02-07T10:11:21.347Z,8.50
2019-02-07T10:13:51.715Z,8.50
2019-02-07T10:16:22.107Z,8.60
2019-02-07T10:18:52.442Z,8.90
2019-02-07T10:21:22.884Z,9.10
2019-02-07T10:26:32.702Z,9.10
2019-02-07T10:29:03.298Z,9.20
2019-02-07T10:31:34.052Z,9.40
2019-02-07T10:34:14.215Z,9.40
2019-02-07T10:40:06.281Z,9.40
2019-02-07T10:42:36.623Z,9.40
2019-02-07T10:45:09.233Z,9.50
2019-02-07T10:47:39.586Z,9.50
2019-02-07T10:50:12.590Z,9.70
2019-02-07T10:55:57.028Z,9.80
2019-02-07T11:02:09.853Z,10.10
2019-02-07T11:04:40.282Z,10.00
2019-02-07T11:07:11.070Z,9.90
2019-02-07T11:09:49.642Z,10.00
2019-02-07T11:12:20.593Z,9.90
2019-02-07T11:14:51.059Z,9.80
2019-02-07T11:17:20.043Z,9.70
2019-02-07T11:19:50.905Z,9.70
2019-02-07T11:22:23.093Z,9.80
2019-02-07T11:24:53.609Z,9.80
2019-02-07T11:27:23.991Z,10.00
2019-02-07T11:29:54.404Z,10.00
2019-02-07T11:32:25.123Z,10.10
2019-02-07T11:34:55.578Z,10.30
2019-02-07T11:37:25.860Z,10.30
2019-02-07T11:39:56.344Z,10.30
2019-02-07T11:42:28.278Z,10.30
2019-02-07T11:44:58.652Z,10.30
2019-02-07T11:47:28.865Z,10.30
2019-02-07T11:49:57.613Z,10.20
2019-02-07T11:52:27.975Z,10.20
2019-02-07T11:54:58.336Z,10.10
2019-02-07T11:57:28.876Z,10.10
2019-02-07T12:00:00.950Z,10.10
2019-02-07T12:02:29.698Z,10.30
2019-02-07T12:05:00.096Z,10.50
2019-02-07T12:07:30.529Z,10.50
2019-02-07T12:10:00.403Z,10.40
2019-02-07T12:12:32.456Z,10.40
2019-02-07T12:15:03.051Z,10.30
2019-02-07T12:17:32.047Z,10.20
2019-02-07T12:20:02.418Z,10.20
2019-02-07T12:22:33.410Z,10.20
2019-02-07T12:25:03.843Z,10.10
2019-02-07T12:27:34.737Z,10.10
2019-02-07T12:30:07.847Z,10.10
2019-02-07T12:32:40.786Z,10.20
2019-02-07T12:35:16.558Z,10.20
2019-02-07T12:37:48.713Z,10.10
2019-02-07T12:40:22.403Z,10.10
2019-02-07T12:42:54.236Z,10.10
2019-02-07T12:45:24.623Z,10.00
2019-02-07T12:47:54.970Z,10.10
2019-02-07T12:50:25.730Z,10.10
2019-02-07T12:52:56.056Z,10.10
2019-02-07T12:55:26.912Z,10.10
2019-02-07T12:57:57.451Z,10.10
2019-02-07T13:00:27.877Z,10.10
2019-02-07T13:02:58.217Z,10.10
2019-02-07T13:05:28.111Z,10.10
2019-02-07T13:07:56.858Z,10.10
2019-02-07T13:10:27.255Z,10.00
2019-02-07T13:12:57.743Z,10.00
2019-02-07T13:15:28.146Z,10.00
2019-02-07T13:17:58.605Z,9.90
2019-02-07T13:20:28.956Z,9.90
2019-02-07T13:22:59.372Z,10.00
2019-02-07T13:25:29.913Z,10.00
2019-02-07T13:28:00.379Z,9.90
2019-02-07T13:30:31.145Z,9.90
2019-02-07T13:33:01.613Z,9.90
2019-02-07T13:35:32.095Z,9.90
2019-02-07T13:38:02.805Z,9.90
2019-02-07T13:40:33.263Z,10.00
2019-02-07T13:43:03.647Z,10.10
2019-02-07T13:45:33.991Z,10.10
2019-02-07T13:48:03.897Z,10.00
2019-02-07T13:50:34.273Z,9.90
2019-02-07T13:53:04.650Z,9.90
2019-02-07T13:55:33.570Z,9.90
2019-02-07T13:58:02.671Z,9.90
2019-02-07T14:00:33.042Z,9.90
2019-02-07T14:03:03.416Z,9.90
2019-02-07T14:05:33.841Z,9.90
2019-02-07T14:08:04.382Z,9.90
2019-02-07T14:10:34.763Z,9.80
2019-02-07T14:13:05.189Z,9.70
2019-02-07T14:15:35.571Z,9.70
2019-02-07T14:18:06.008Z,9.70
2019-02-07T14:20:36.347Z,9.80
2019-02-07T14:23:06.827Z,9.80
2019-02-07T14:25:37.328Z,9.70
2019-02-07T14:28:07.741Z,9.70
2019-02-07T14:30:38.120Z,9.70
2019-02-07T14:33:08.550Z,9.70
2019-02-07T14:35:38.879Z,9.70
2019-02-07T14:38:09.721Z,9.70
2019-02-07T14:40:40.035Z,9.70
2019-02-07T14:43:10.459Z,9.70
2019-02-07T14:45:40.800Z,9.70
2019-02-07T14:48:11.379Z,9.70
2019-02-07T14:50:40.128Z,9.70
2019-02-07T14:53:08.993Z,9.90
2019-02-07T14:55:37.831Z,10.20
2019-02-07T14:58:06.634Z,10.40
2019-02-07T15:00:35.834Z,10.80
2019-02-07T15:03:07.643Z,11.20
2019-02-07T15:05:36.484Z,11.20
2019-02-07T15:08:05.774Z,10.90
2019-02-07T15:10:34.718Z,10.50
2019-02-07T15:13:03.514Z,10.10
2019-02-07T15:15:32.252Z,9.90
2019-02-07T15:18:01.079Z,9.80
2019-02-07T15:20:29.847Z,9.70
2019-02-07T15:22:59.098Z,9.60
2019-02-07T15:25:28.442Z,9.60
2019-02-07T15:27:57.214Z,9.60
2019-02-07T15:30:26.854Z,9.50
2019-02-07T15:32:55.679Z,9.50
2019-02-07T15:35:27.283Z,9.50
2019-02-07T15:37:56.429Z,9.40
2019-02-07T15:40:26.175Z,9.40
2019-02-07T15:42:55.752Z,9.40
2019-02-07T15:45:24.582Z,9.40
2019-02-07T15:47:53.371Z,9.30
2019-02-07T15:50:24.275Z,9.40
2019-02-07T15:52:55.202Z,9.40
2019-02-07T15:55:24.480Z,9.40
2019-02-07T15:57:53.515Z,9.30
2019-02-07T16:00:27.668Z,9.20
2019-02-07T16:03:34.175Z,9.10
2019-02-07T16:06:02.524Z,9.10
2019-02-07T16:08:37.368Z,9.00
2019-02-07T16:11:07.696Z,8.90
2019-02-07T16:13:36.926Z,8.80
2019-02-07T16:16:06.083Z,8.80
2019-02-07T16:18:34.713Z,8.80
2019-02-07T16:21:05.528Z,8.70
2019-02-07T16:23:34.077Z,8.60
2019-02-07T16:26:02.855Z,8.60
2019-02-07T16:28:31.999Z,8.60
2019-02-07T16:31:01.607Z,8.60
2019-02-07T16:33:31.794Z,8.50
2019-02-07T16:36:00.886Z,8.40
2019-02-07T16:38:29.742Z,8.40
2019-02-07T16:40:58.625Z,8.30
2019-02-07T16:43:29.358Z,8.20
2019-02-07T16:45:58.226Z,8.20
2019-02-07T16:48:26.957Z,8.20
2019-02-07T16:51:00.199Z,8.20
2019-02-07T16:53:26.563Z,8.20
2019-02-07T16:55:55.421Z,8.20
2019-02-07T16:58:25.753Z,8.20
2019-02-07T17:00:54.581Z,8.30
2019-02-07T17:03:23.607Z,8.40
2019-02-07T17:05:53.247Z,8.40
2019-02-07T17:08:22.078Z,8.40
2019-02-07T17:10:51.150Z,8.30
2019-02-07T17:13:20.538Z,8.20
2019-02-07T17:15:49.565Z,8.00
2019-02-07T17:18:18.587Z,7.80
2019-02-07T17:20:47.617Z,7.70
2019-02-07T17:23:16.365Z,7.60
2019-02-07T17:25:45.216Z,7.50
2019-02-07T17:28:14.296Z,7.40
2019-02-07T17:30:43.227Z,7.30
2019-02-07T17:33:12.021Z,7.30
2019-02-07T17:35:40.810Z,7.20
2019-02-07T17:38:09.591Z,7.30
2019-02-07T17:40:38.357Z,7.20
2019-02-07T17:43:07.230Z,7.10
2019-02-07T17:45:36.068Z,7.10
2019-02-07T17:48:05.403Z,7.10
2019-02-07T17:50:36.165Z,7.20
2019-02-07T17:53:07.564Z,7.20
2019-02-07T17:55:36.462Z,7.20
2019-02-07T17:58:06.512Z,7.30
2019-02-07T18:00:40.271Z,7.30
2019-02-07T18:03:09.000Z,7.30
2019-02-07T18:05:37.822Z,7.40
2019-02-07T18:08:09.404Z,7.40
2019-02-07T18:10:38.337Z,7.50
2019-02-07T18:13:07.608Z,7.50
2019-02-07T18:15:36.452Z,7.60
2019-02-07T18:18:06.305Z,7.70
2019-02-07T18:20:35.142Z,7.80
2019-02-07T18:23:05.774Z,7.80
2019-02-07T18:25:34.713Z,7.90
2019-02-07T18:28:04.016Z,8.00
2019-02-07T18:30:32.869Z,7.90
2019-02-07T18:33:01.676Z,7.80
2019-02-07T18:35:33.528Z,7.80
2019-02-07T18:38:02.457Z,7.80
2019-02-07T18:40:32.540Z,7.80
2019-02-07T18:43:04.830Z,7.90
2019-02-07T18:45:34.045Z,7.90
2019-02-07T18:48:02.819Z,7.90
2019-02-07T18:50:33.713Z,7.90
2019-02-07T18:53:02.901Z,7.80
2019-02-07T18:55:33.158Z,7.80
2019-02-07T18:58:04.030Z,7.80
2019-02-07T19:00:38.658Z,7.90
2019-02-07T19:03:08.774Z,7.90
2019-02-07T19:05:37.865Z,7.90
2019-02-07T19:08:07.564Z,7.90
2019-02-07T19:10:36.478Z,7.80
2019-02-07T19:13:05.921Z,7.80
2019-02-07T19:15:37.621Z,7.70
2019-02-07T19:18:06.947Z,7.70
2019-02-07T19:20:37.349Z,7.70
2019-02-07T19:23:07.099Z,7.70
2019-02-07T19:25:36.230Z,7.70
2019-02-07T19:28:06.341Z,7.70
2019-02-07T19:30:37.004Z,7.70
2019-02-07T19:33:06.250Z,7.70
2019-02-07T19:35:35.192Z,7.70
2019-02-07T19:38:04.363Z,7.70
2019-02-07T19:40:34.194Z,7.70
2019-02-07T19:43:03.079Z,7.80
2019-02-07T19:45:31.878Z,7.70
2019-02-07T19:48:00.735Z,7.70
2019-02-07T19:50:30.053Z,7.60
2019-02-07T19:52:58.783Z,7.50
2019-02-07T19:55:30.166Z,7.60
2019-02-07T19:58:01.251Z,7.50
2019-02-07T20:00:33.278Z,7.50
2019-02-07T20:03:02.565Z,7.40
2019-02-07T20:05:31.516Z,7.50
2019-02-07T20:08:00.334Z,7.40
2019-02-07T20:10:30.184Z,7.40
2019-02-07T20:12:59.528Z,7.30
2019-02-07T20:15:33.146Z,7.30
2019-02-07T20:18:02.413Z,7.30
2019-02-07T20:20:31.863Z,7.30
2019-02-07T20:23:00.937Z,7.30
2019-02-07T20:25:30.131Z,7.20
2019-02-07T20:27:59.384Z,7.10
2019-02-07T20:30:31.372Z,7.00
2019-02-07T20:33:00.536Z,6.90
2019-02-07T20:35:29.694Z,7.00
2019-02-07T20:37:58.563Z,7.00
2019-02-07T20:40:28.716Z,6.90
2019-02-07T20:42:57.960Z,6.90
2019-02-07T20:45:26.890Z,6.80
2019-02-07T20:47:55.928Z,6.70
2019-02-07T20:50:26.508Z,6.80
2019-02-07T20:52:55.755Z,6.80
2019-02-07T20:55:25.369Z,6.80
2019-02-07T20:57:55.302Z,6.90
2019-02-07T21:00:26.099Z,6.90
2019-02-07T21:02:56.130Z,7.00
2019-02-07T21:05:25.663Z,7.00
2019-02-07T21:07:54.412Z,7.00
2019-02-07T21:10:25.666Z,7.00
2019-02-07T21:12:54.562Z,7.00
2019-02-07T21:15:23.862Z,6.90
2019-02-07T21:17:52.991Z,6.90
2019-02-07T21:20:24.377Z,6.90
2019-02-07T21:22:54.161Z,6.90
2019-02-07T21:25:25.498Z,6.90
2019-02-07T21:27:54.383Z,6.90
2019-02-07T21:30:26.062Z,6.90
2019-02-07T21:32:55.317Z,7.00
2019-02-07T21:35:24.129Z,7.00
2019-02-07T21:37:53.061Z,6.90
2019-02-07T21:40:24.066Z,6.90
2019-02-07T21:42:54.463Z,6.80
2019-02-07T21:45:24.085Z,6.80
2019-02-07T21:47:53.530Z,6.80
2019-02-07T21:50:26.192Z,6.80
2019-02-07T21:52:55.170Z,6.80
2019-02-07T21:55:26.833Z,6.80
2019-02-07T21:57:56.034Z,6.80
2019-02-07T22:00:27.774Z,6.90
2019-02-07T22:02:56.600Z,6.80
2019-02-07T22:05:26.372Z,6.80
2019-02-07T22:07:58.931Z,6.70
2019-02-07T22:10:28.160Z,6.70
2019-02-07T22:12:57.953Z,6.80
2019-02-07T22:15:28.055Z,6.80
2019-02-07T22:17:56.974Z,6.80
2019-02-07T22:20:27.508Z,6.80
2019-02-07T22:23:01.076Z,6.80
2019-02-07T22:25:29.839Z,6.80
2019-02-07T22:28:00.557Z,6.80
2019-02-07T22:30:32.495Z,6.80
2019-02-07T22:33:01.506Z,6.80
2019-02-07T22:35:31.677Z,6.80
2019-02-07T22:38:01.274Z,6.80
2019-02-07T22:40:30.073Z,6.70
2019-02-07T22:43:00.946Z,6.70
2019-02-07T22:45:30.012Z,6.70
2019-02-07T22:47:59.059Z,6.70
2019-02-07T22:50:29.799Z,6.60
2019-02-07T22:53:00.902Z,6.60
2019-02-07T22:55:29.863Z,6.70
2019-02-07T22:57:58.735Z,6.70
2019-02-07T23:00:28.718Z,6.70
2019-02-07T23:02:58.433Z,6.80
2019-02-07T23:05:27.105Z,6.80
2019-02-07T23:07:56.018Z,6.80
2019-02-07T23:10:25.078Z,6.80
2019-02-07T23:12:53.971Z,6.80
2019-02-07T23:15:23.348Z,6.80
2019-02-07T23:17:52.213Z,6.80
2019-02-07T23:20:22.538Z,6.80
2019-02-07T23:22:51.631Z,6.80
2019-02-07T23:25:20.385Z,6.80
2019-02-07T23:27:49.089Z,6.80
2019-02-07T23:30:19.859Z,6.80
2019-02-07T23:32:48.707Z,6.80
2019-02-07T23:35:17.666Z,6.70
2019-02-07T23:37:46.452Z,6.70
2019-02-07T23:40:17.653Z,6.80
2019-02-07T23:42:46.533Z,6.70
2019-02-07T23:45:18.117Z,6.70
2019-02-07T23:47:46.972Z,6.70
2019-02-07T23:50:16.743Z,6.60
2019-02-07T23:52:45.473Z,6.60
2019-02-07T23:55:15.690Z,6.60
2019-02-07T23:57:44.530Z,6.60
